Volendam — PCHM — position and weather

sailwx.info

Track history (hours):
 
Tides and Currents Weather Stations Pressure Air Temp Water Temp Dewpoint Dewpoint Depression Visibility Wind Speed Wind Dir Waves Ship Positions

Volendam

Operator: Holland America Line

Last reported at 2018-Sep-21 16:00 UTC. Time now 2018-Sep-21 22:08 UTC.
Position N 57°18' W 133°48'.

Type: Ship. MMSI: 245968000.

Wind from 350 at 12 knots

Barometer 1017.1 mb
Air temperature 9.5 ° C
Visibility: greater than 10.8 NM
Dewpoint 7.9 ° C
Water temperature 16.8 ° C

Date/timePositionNaut miles runAvg speedWind from/ knotsBaromVisibWave heightAir tempDewpointWater temp
2018-Sep-21 16:00N 57°18' W 133°48'2914.5 350 / 121017.110.8 9.5 7.916.8
2018-Sep-21 14:00N 56°54' W 134°18'1212.4 360 / 41017.110.8 7.5 6.314.4
2018-Sep-21 13:00N 56°42' W 134°24'1818.0 360 / 201017.110.8 8.3 6.814.2
2018-Sep-21 12:00N 56°24' W 134°24'4214.0 020 / 111017.110.8 8.7 6.814.0
2018-Sep-21 09:00N 55°42' W 134°18'1413.8 010 / 101017.010.8 12.810.319.4
2018-Sep-21 08:00N 55°30' W 134°06'6622.0 010 / 101017.010.8 12.810.319.4
2018-Sep-21 05:00N 54°36' W 133°00'1610.1 040 / 71017.210.8 11.5 7.612.4
2018-Sep-21 03:26N 54°28' W 132°37'918.7
2018-Sep-21 02:55N 54°27' W 132°21'819.3
2018-Sep-21 02:30N 54°26' W 132°07'919.0
2018-Sep-21 02:03N 54°25' W 131°52'318.9
2018-Sep-21 01:55N 54°25' W 131°47'818.9
2018-Sep-21 01:30N 54°24' W 131°34'919.0
2018-Sep-21 01:03N 54°22' W 131°20'118.7
2018-Sep-21 01:00N 54°22' W 131°19'4261.1
2018-Sep-21 01:00N 54°18' W 131°18'918.3 360 / 91017.610.8 12.210.319.2
2018-Sep-21 00:30N 54°20' W 131°03'818.2
2018-Sep-21 00:03N 54°17' W 130°50'113.1
2018-Sep-21 00:00N 54°17' W 130°49'816.3
2018-Sep-20 23:30N 54°12' W 130°38'818.7
2018-Sep-20 23:03N 54°08' W 130°25'118.4
2018-Sep-20 23:01N 54°07' W 130°24'918.4
2018-Sep-20 22:31N 54°01' W 130°13'816.8
2018-Sep-20 22:03N 53°54' W 130°07'119.0
2018-Sep-20 22:00N 53°53' W 130°06'6431.8
2018-Sep-20 22:00N 53°48' W 130°00'3 6.7 290 / 161016.610.8 12.810.218.8
2018-Sep-20 21:30N 53°46' W 129°55'1325.3
2018-Sep-20 21:00N 53°36' W 129°42'4615.7 310 / 41016.810.8 13.913.719.9
2018-Sep-20 18:05N 52°54' W 129°13'119.7
2018-Sep-20 18:01N 52°53' W 129°12'119.5
2018-Sep-20 17:57N 52°51' W 129°11'919.3
2018-Sep-20 17:31N 52°44' W 129°04'919.8
2018-Sep-20 17:04N 52°37' W 128°55'119.3
2018-Sep-20 17:00N 52°36' W 128°54'1019.4
2018-Sep-20 16:30N 52°27' W 128°51'919.1
2018-Sep-20 16:03N 52°18' W 128°49'119.4
2018-Sep-20 16:00N 52°17' W 128°48'144.2
2018-Sep-20 16:00N 52°18' W 128°48'1021.2
2018-Sep-20 15:31N 52°08' W 128°45'919.8
2018-Sep-20 15:04N 51°59' W 128°41'120.0
2018-Sep-20 15:01N 51°58' W 128°41'1020.0
2018-Sep-20 14:30N 51°49' W 128°36'1019.9
2018-Sep-20 14:01N 51°39' W 128°32'3201.3
2018-Sep-20 14:00N 51°36' W 128°30'713.8 110 / 151017.5 11.911.719.9
2018-Sep-20 13:31N 51°30' W 128°28'919.9
2018-Sep-20 13:03N 51°21' W 128°24'120.0
2018-Sep-20 13:00N 51°20' W 128°23'1019.2
2018-Sep-20 12:30N 51°11' W 128°16'919.7
2018-Sep-20 12:04N 51°06' W 128°04'119.8
2018-Sep-20 12:00N 51°06' W 128°03'2120.0
2018-Sep-20 12:00N 51°06' W 128°00'817.2 110 / 131017.9 11.711.519.3
2018-Sep-20 11:30N 51°00' W 127°50'920.1
2018-Sep-20 11:03N 50°55' W 127°39'121.0
2018-Sep-20 11:01N 50°54' W 127°38'166.1
2018-Sep-20 11:00N 50°54' W 127°36'1019.0 100 / 131018.6 10.710.518.3
2018-Sep-20 10:28N 50°49' W 127°23'1120.0
2018-Sep-20 09:54N 50°44' W 127°06'2123.0
2018-Sep-20 09:00N 50°30' W 126°42'4 8.8 180 / 21018.910.8 10.910.019.1
2018-Sep-20 08:32N 50°31' W 126°36'118.5
2018-Sep-20 08:29N 50°31' W 126°35'819.3
2018-Sep-20 08:03N 50°30' W 126°21'119.9
2018-Sep-20 07:59N 50°29' W 126°19'2117.5
2018-Sep-20 06:45N 50°23' W 125°47'514.9
2018-Sep-20 06:27N 50°22' W 125°40'716.4
2018-Sep-20 06:02N 50°21' W 125°30'5116.1
2018-Sep-20 06:00N 50°18' W 125°24'345.5 260 / 51018.910.8 10.910.019.1
2018-Sep-20 05:55N 50°20' W 125°27'615.3
2018-Sep-20 05:30N 50°14' W 125°23'716.3
2018-Sep-20 05:03N 50°07' W 125°21'113.2
2018-Sep-20 05:00N 50°07' W 125°20'612.0
2018-Sep-20 04:30N 50°02' W 125°14'714.8
2018-Sep-20 04:03N 49°57' W 125°08'121.2
2018-Sep-20 04:00N 49°56' W 125°06'2390.3
2018-Sep-20 04:00N 49°54' W 125°06'918.5 280 / 141018.510.8 13.711.619.9
2018-Sep-20 03:31N 49°50' W 124°54'921.0
2018-Sep-20 03:03N 49°44' W 124°42'120.2
2018-Sep-20 03:00N 49°43' W 124°41'4227.4
2018-Sep-20 03:00N 49°42' W 124°36'715.2 300 / 101018.210.8 13.711.721.0
2018-Sep-20 02:31N 49°37' W 124°28'1224.2
2018-Sep-20 02:00N 49°30' W 124°12'1 7.3 320 / 121017.410.8 12.910.316.8
2018-Sep-20 01:52N 49°30' W 124°11'720.3
2018-Sep-20 01:30N 49°27' W 124°00'920.9
2018-Sep-20 01:04N 49°24' W 123°47'120.4
2018-Sep-20 01:00N 49°24' W 123°45'6389.1
2018-Sep-20 01:00N 49°18' W 123°42'817.2 280 / 181017.410.8 14.211.216.8
2018-Sep-20 00:30N 49°20' W 123°30'920.5
2018-Sep-20 00:04N 49°19' W 123°16'120.5
2018-Sep-20 00:00N 49°19' W 123°14'510.5
2018-Sep-19 23:31N 49°17' W 123°07'0 0.1
2018-Sep-19 23:01N 49°17' W 123°07'0 0.1
2018-Sep-19 22:58N 49°17' W 123°07'0 0.0
2018-Sep-19 22:28N 49°17' W 123°07'0 0.0
2018-Sep-19 22:01N 49°17' W 123°07'0 0.0
2018-Sep-19 21:58N 49°17' W 123°07'0 0.0
2018-Sep-19 21:28N 49°17' W 123°07'0 0.0
2018-Sep-19 21:01N 49°17' W 123°07'5176.1
2018-Sep-19 21:00N 49°12' W 123°06'5280.8 230 / 51017.710.8 17.612.116.8
2018-Sep-19 20:58N 49°17' W 123°07'0 0.0
2018-Sep-19 20:28N 49°17' W 123°07'0 0.0
2018-Sep-19 20:01N 49°17' W 123°07'0 0.0
2018-Sep-19 19:58N 49°17' W 123°07'0 0.0
2018-Sep-19 19:28N 49°17' W 123°07'0 0.0
2018-Sep-19 19:01N 49°17' W 123°07'0 0.0
2018-Sep-19 18:58N 49°17' W 123°07'0 0.0
2018-Sep-19 18:28N 49°17' W 123°07'0 0.0
2018-Sep-19 18:01N 49°17' W 123°07'0 0.1
2018-Sep-19 17:58N 49°17' W 123°07'0 0.0
2018-Sep-19 17:28N 49°17' W 123°07'0 0.0
2018-Sep-19 17:01N 49°17' W 123°07'0 0.0
2018-Sep-19 16:58N 49°17' W 123°07'0 0.0
2018-Sep-19 16:28N 49°17' W 123°07'0 0.0
2018-Sep-19 16:01N 49°17' W 123°07'0 0.0
2018-Sep-19 15:58N 49°17' W 123°07'0 0.0
2018-Sep-19 15:28N 49°17' W 123°07'0 0.0
2018-Sep-19 15:01N 49°17' W 123°07'0 0.0
2018-Sep-19 14:58N 49°17' W 123°07'0 0.0
2018-Sep-19 14:28N 49°17' W 123°07'1 1.2
2018-Sep-19 13:31N 49°18' W 123°07'4 9.2
2018-Sep-19 13:03N 49°19' W 123°14'111.2
2018-Sep-19 13:00N 49°18' W 123°15'611.0
2018-Sep-19 12:30N 49°18' W 123°23'511.0
2018-Sep-19 12:03N 49°18' W 123°31'010.7
2018-Sep-19 12:00N 49°18' W 123°31'510.7
2018-Sep-19 11:30N 49°19' W 123°39'510.6
2018-Sep-19 11:03N 49°19' W 123°47'110.6
2018-Sep-19 11:00N 49°20' W 123°47'402849.6
2018-Sep-19 11:00N 49°18' W 124°48'3571.5 100 / 81018.310.8 13.411.616.8
2018-Sep-19 10:31N 49°21' W 123°55'510.8
2018-Sep-19 10:04N 49°22' W 124°02'110.5
2018-Sep-19 10:01N 49°22' W 124°03'3165.4
2018-Sep-19 10:00N 49°24' W 124°00'715.1 360 / 11018.010.8 13.111.217.8
2018-Sep-19 09:30N 49°23' W 124°11'510.8
2018-Sep-19 09:03N 49°25' W 124°18'115.3
2018-Sep-19 09:01N 49°25' W 124°20'189.0
2018-Sep-19 09:00N 49°24' W 124°18'715.2 360 / 11018.010.8 13.111.217.8
2018-Sep-19 08:30N 49°28' W 124°27'510.5
2018-Sep-19 08:01N 49°32' W 124°32'396.5
2018-Sep-19 08:00N 49°30' W 124°30'3884.4 360 / 11018.010.8 13.111.217.8
2018-Sep-19 07:59N 49°32' W 124°32'510.7
2018-Sep-19 07:30N 49°36' W 124°38'510.7
2018-Sep-19 07:03N 49°40' W 124°43'010.8
2018-Sep-19 07:01N 49°40' W 124°43'510.7
2018-Sep-19 06:30N 49°44' W 124°49'510.7
2018-Sep-19 06:03N 49°48' W 124°54'111.9
2018-Sep-19 06:00N 49°48' W 124°55'510.4
2018-Sep-19 05:30N 49°52' W 125°00'410.1
2018-Sep-19 05:04N 49°55' W 125°05'110.0
2018-Sep-19 05:00N 49°56' W 125°06'510.1
2018-Sep-19 04:30N 49°59' W 125°11'511.3
2018-Sep-19 04:03N 50°04' W 125°15'010.4
2018-Sep-19 04:00N 50°04' W 125°15'510.4
2018-Sep-19 03:31N 50°08' W 125°21'511.0
2018-Sep-19 03:03N 50°13' W 125°22'111.6
2018-Sep-19 03:00N 50°13' W 125°23'611.8
2018-Sep-19 02:30N 50°19' W 125°25'510.6
2018-Sep-19 02:02N 50°21' W 125°32'310.9
2018-Sep-19 01:43N 50°22' W 125°37'313.3
2018-Sep-19 01:29N 50°22' W 125°42'5216.0
2018-Sep-18 22:15N 50°42' W 126°57'2284.7
2018-Sep-18 22:00N 50°48' W 127°30'15145.4 140 / 131020.410.8 10.1 8.217.8
2018-Sep-18 21:53N 50°45' W 127°07'1018.5
2018-Sep-18 21:22N 50°48' W 127°21'618.1
2018-Sep-18 21:03N 50°50' W 127°29'117.8
2018-Sep-18 21:00N 50°51' W 127°30'917.9
2018-Sep-18 20:30N 50°56' W 127°42'818.1
2018-Sep-18 20:03N 51°01' W 127°52'117.9
2018-Sep-18 20:00N 51°01' W 127°54'917.8
2018-Sep-18 19:30N 51°07' W 128°05'816.9
2018-Sep-18 19:03N 51°11' W 128°15'116.3
2018-Sep-18 19:00N 51°12' W 128°16'816.6
2018-Sep-18 18:30N 51°16' W 128°26'816.8
2018-Sep-18 18:03N 51°21' W 128°36'116.7
2018-Sep-18 18:00N 51°21' W 128°37'917.5
2018-Sep-18 17:30N 51°26' W 128°49'817.5
2018-Sep-18 17:03N 51°32' W 128°57'118.4
2018-Sep-18 17:00N 51°33' W 128°57'3193.0
2018-Sep-18 17:00N 51°36' W 129°00'612.2 120 / 301018.510.8 12.410.316.7
2018-Sep-18 16:31N 51°41' W 129°05'818.2
2018-Sep-18 16:03N 51°48' W 129°13'117.8
2018-Sep-18 16:00N 51°48' W 129°13'162.3
2018-Sep-18 16:00N 51°48' W 129°12'1019.8 120 / 321018.510.8 12.410.116.3
2018-Sep-18 15:30N 51°56' W 129°21'817.6
2018-Sep-18 15:03N 52°02' W 129°28'117.6
2018-Sep-18 15:00N 52°03' W 129°29'3191.0
2018-Sep-18 15:00N 52°00' W 129°30'1123.3 100 / 301018.710.8 11.7 9.617.7
2018-Sep-18 14:30N 52°10' W 129°37'917.6
2018-Sep-18 14:00N 52°18' W 129°45'1117.8
2018-Sep-18 13:25N 52°27' W 129°54'922.5
2018-Sep-18 13:00N 52°18' W 130°00'3130.9 120 / 301018.710.8 11.5 8.917.4
2018-Sep-18 12:00N 52°48' W 130°12'1616.2 140 / 251019.110.8 12.3 8.817.4
2018-Sep-18 11:00N 53°00' W 130°30'636.0 160 / 271019.110.8 13.010.017.7
2018-Sep-18 10:50N 53°05' W 130°35'617.5
2018-Sep-18 10:30N 53°10' W 130°40'817.6
2018-Sep-18 10:03N 53°17' W 130°44'117.9
2018-Sep-18 10:00N 53°18' W 130°45'917.9
2018-Sep-18 09:30N 53°27' W 130°48'818.1
2018-Sep-18 09:03N 53°35' W 130°51'118.0
2018-Sep-18 09:00N 53°36' W 130°51'2115.5
2018-Sep-18 09:00N 53°36' W 130°48'919.3 120 / 281020.510.8 13.0 9.417.7
2018-Sep-18 08:30N 53°45' W 130°54'818.3
2018-Sep-18 08:03N 53°53' W 130°57'117.3
2018-Sep-18 08:00N 53°54' W 130°57'2113.7
2018-Sep-18 08:00N 53°54' W 130°54'919.0 120 / 281020.510.8 13.0 9.417.7
2018-Sep-18 07:30N 54°02' W 131°00'817.8
2018-Sep-18 07:03N 54°10' W 131°01'117.8
2018-Sep-18 07:00N 54°11' W 131°01'158.1
2018-Sep-18 07:00N 54°12' W 131°00'715.3 130 / 241020.510.8 12.7 9.717.7
2018-Sep-18 06:30N 54°19' W 130°57'714.5
2018-Sep-18 06:04N 54°24' W 131°05'118.5
2018-Sep-18 06:00N 54°25' W 131°06'918.4
2018-Sep-18 05:30N 54°31' W 131°17'918.8
2018-Sep-18 05:03N 54°37' W 131°28'118.8
2018-Sep-18 05:00N 54°38' W 131°29'2124.7
2018-Sep-18 05:00N 54°36' W 131°30'1520.8 110 / 181020.510.8 12.110.216.4
2018-Sep-18 04:16N 54°50' W 131°40'516.9
2018-Sep-18 04:00N 54°54' W 131°36'24 4.0 120 / 131020.510.8 14.010.815.9
2018-Sep-17 22:00N 55°18' W 131°36'7 1.4 170 / 151020.510.8 14.5 8.718.8
2018-Sep-17 17:00N 55°18' W 131°48'3534.6 140 / 101019.210.8 9.8 7.018.8
2018-Sep-17 16:00N 55°24' W 132°48'2813.8 130 / 71018.210.8 9.7 7.316.2
2018-Sep-17 14:00N 55°48' W 132°24'1615.7 190 / 21018.210.8 9.0 6.116.8
2018-Sep-17 13:00N 56°00' W 132°42'1413.7 180 / 21018.210.8 6.4 4.114.9
2018-Sep-17 12:00N 56°12' W 132°54'1211.7 180 / 21017.910.8 6.4 4.113.9
2018-Sep-17 11:00N 56°18' W 133°12'1313.3 130 / 61017.910.8 9.4 5.615.2
2018-Sep-17 10:00N 56°18' W 133°36'2222.4 010 / 101017.710.8 9.4 5.615.2
2018-Sep-17 09:00N 56°00' W 134°00'4515.1 010 / 101017.310.8 9.4 5.615.2
2018-Sep-17 06:00N 56°42' W 134°30'2524.9 200 / 41016.310.8 10.2 3.915.0
2018-Sep-17 05:00N 57°06' W 134°42'1818.0 130 / 21015.910.8 9.6 4.816.8
2018-Sep-17 04:00N 57°24' W 134°42'3015.1 300 / 101015.010.8 11.7 3.710.0
2018-Sep-17 02:00N 57°54' W 134°48'1642.9
2018-Sep-17 01:37N 58°07' W 135°06'218.1
2018-Sep-17 01:30N 58°08' W 135°10'818.7
2018-Sep-17 01:03N 58°12' W 135°24'119.4
2018-Sep-17 01:00N 58°12' W 135°25'918.8
2018-Sep-17 00:30N 58°17' W 135°41'818.3
2018-Sep-17 00:03N 58°20' W 135°56'118.4
2018-Sep-17 00:00N 58°21' W 135°57'713.2
2018-Sep-16 23:31N 58°27' W 136°00'716.5
2018-Sep-16 23:03N 58°34' W 136°03'119.2
2018-Sep-16 23:00N 58°35' W 136°03'2113.6
2018-Sep-16 23:00N 58°36' W 136°00'918.9 300 / 101015.410.8 10.7 2.810.0
2018-Sep-16 22:31N 58°44' W 136°10'918.9
2018-Sep-16 22:03N 58°48' W 136°24'119.5
2018-Sep-16 22:01N 58°48' W 136°26'154.5
2018-Sep-16 22:00N 58°48' W 136°24'1121.7 300 / 101015.410.8 10.7 2.810.0
2018-Sep-16 21:30N 58°53' W 136°42'1 0.3
2018-Sep-16 16:54N 58°53' W 136°45'815.1
2018-Sep-16 16:23N 58°51' W 136°30'411.7
2018-Sep-16 16:03N 58°48' W 136°25'113.9
2018-Sep-16 16:00N 58°48' W 136°24'021.7
2018-Sep-16 16:00N 58°48' W 136°24'919.2 300 / 121016.110.8 6.9 4.222.9
2018-Sep-16 15:30N 58°41' W 136°11'818.3
2018-Sep-16 15:04N 58°34' W 136°03'118.2
2018-Sep-16 15:01N 58°33' W 136°03'16931.1
2018-Sep-16 15:00N 58°18' W 136°00'816.0 290 / 21016.210.8 5.9 3.221.7
2018-Sep-16 14:30N 58°26' W 135°58'815.4
2018-Sep-16 14:00N 58°18' W 135°54'4 8.4 010 / 31016.210.8 7.8 4.015.4
2018-Sep-16 13:30N 58°18' W 135°46'612.7
2018-Sep-16 13:03N 58°16' W 135°36'112.2
2018-Sep-16 13:00N 58°16' W 135°35'5304.0
2018-Sep-16 13:00N 58°12' W 135°30'4 7.5 280 / 61016.110.8 7.8 3.818.0
2018-Sep-16 12:30N 58°13' W 135°24'614.4
2018-Sep-16 12:03N 58°11' W 135°12'695.9
2018-Sep-16 12:00N 58°06' W 135°06'5467.7 260 / 61017.310.8 8.6 4.221.0
2018-Sep-16 11:59N 58°11' W 135°10'6 5.7
2018-Sep-16 11:00N 58°12' W 135°00'1212.0 360 / 41017.010.8 8.1 3.212.7
2018-Sep-16 10:00N 58°24' W 135°00'1212.4 360 / 81017.010.8 8.1 3.212.7
2018-Sep-16 09:00N 58°36' W 135°06'2412.1 320 / 121017.710.8 11.1 3.410.7
2018-Sep-16 07:00N 59°00' W 135°12'1212.4 350 / 151017.410.8 11.1 3.410.7
2018-Sep-16 06:00N 59°12' W 135°18'12 0.7 280 / 101017.510.8 10.4 2.710.5
2018-Sep-15 14:00N 59°24' W 135°18'6 6.0 080 / 11022.210.8 7.5 1.610.4
2018-Sep-15 13:00N 59°18' W 135°18'1818.3 350 / 211021.810.8 8.5 1.210.7
2018-Sep-15 12:00N 59°36' W 135°12'6030.2 350 / 61021.810.8 12.7 0.412.4
2018-Sep-15 10:00N 58°36' W 135°00'1413.5 350 / 61020.810.8 12.7 0.412.4
2018-Sep-15 09:00N 58°24' W 134°48'2412.0 350 / 61020.810.8 12.7 0.412.4
2018-Sep-15 07:00N 58°06' W 134°18'60 4.0 050 / 141020.010.8 13.7-2.714.4
2018-Sep-14 16:00N 57°06' W 134°06'2120.5 030 / 51016.410.8 8.7 7.610.1
2018-Sep-14 15:00N 56°48' W 134°24'4816.0 020 / 51016.310.8 8.0 6.6 9.8
2018-Sep-14 12:00N 56°00' W 134°18'1818.0 040 / 241014.810.8 12.0 8.815.3
2018-Sep-14 11:00N 55°42' W 134°18'4120.7 040 / 241014.810.8 12.0 8.815.3
2018-Sep-14 09:00N 55°06' W 133°42'1615.8 060 / 131014.810.8 11.5 8.512.4
2018-Sep-14 08:00N 54°54' W 133°24'2322.7 040 / 71014.810.8 11.5 8.512.4
2018-Sep-14 07:00N 54°36' W 133°00'310.2 040 / 71015.210.8 11.5 8.512.4
2018-Sep-14 06:44N 54°38' W 132°58'418.4
2018-Sep-14 06:30N 54°35' W 132°52'919.7
2018-Sep-14 06:03N 54°30' W 132°41'119.7
2018-Sep-14 06:00N 54°29' W 132°39'5370.0
2018-Sep-14 06:00N 54°24' W 132°36'917.1 330 / 11015.410.8 12.1 9.114.0
2018-Sep-14 05:29N 54°27' W 132°22'820.1
2018-Sep-14 05:03N 54°26' W 132°07'120.3
2018-Sep-14 05:00N 54°26' W 132°05'4377.7
2018-Sep-14 05:00N 54°24' W 132°00'713.4 200 / 51015.210.8 11.9 8.715.7
2018-Sep-14 04:30N 54°25' W 131°49'919.3
2018-Sep-14 04:03N 54°24' W 131°34'119.8
2018-Sep-14 04:00N 54°24' W 131°33'189.6
2018-Sep-14 04:00N 54°24' W 131°30'817.2 030 / 21015.510.8 11.8 8.615.5
2018-Sep-14 03:30N 54°23' W 131°16'919.9
2018-Sep-14 03:03N 54°20' W 131°01'120.0
2018-Sep-14 03:00N 54°20' W 130°60'815.9
2018-Sep-14 02:30N 54°16' W 130°48'817.2
2018-Sep-14 02:03N 54°11' W 130°37'119.0
2018-Sep-14 02:00N 54°11' W 130°35'918.7
2018-Sep-14 01:30N 54°06' W 130°21'818.4
2018-Sep-14 01:03N 53°60' W 130°13'118.4
2018-Sep-14 01:00N 53°59' W 130°13'917.3
2018-Sep-14 00:30N 53°52' W 130°04'818.5
2018-Sep-14 00:03N 53°46' W 129°54'118.2
2018-Sep-14 00:00N 53°45' W 129°53'4120.5
2018-Sep-13 22:00N 53°12' W 129°12'1212.0 340 / 181015.010.8 13.0 6.813.2
2018-Sep-13 21:00N 53°00' W 129°12'828.4 340 / 151015.010.8 13.0 6.813.2
2018-Sep-13 20:43N 52°52' W 129°11'1021.5
2018-Sep-13 20:16N 52°44' W 129°04'522.6
2018-Sep-13 20:03N 52°40' W 128°59'122.2
2018-Sep-13 20:00N 52°39' W 128°58'1020.5
2018-Sep-13 19:30N 52°30' W 128°52'1021.4
2018-Sep-13 19:03N 52°20' W 128°49'121.5
2018-Sep-13 19:00N 52°19' W 128°49'1121.4
2018-Sep-13 18:30N 52°09' W 128°45'1022.1
2018-Sep-13 18:03N 51°59' W 128°41'122.4
2018-Sep-13 18:00N 51°58' W 128°40'1122.0
2018-Sep-13 17:30N 51°47' W 128°36'1021.5
2018-Sep-13 17:03N 51°38' W 128°31'121.3
2018-Sep-13 17:00N 51°37' W 128°31'8516.7
2018-Sep-13 17:00N 51°30' W 128°24'4 7.4 080 / 101014.110.8 12.011.414.2
2018-Sep-13 16:30N 51°27' W 128°26'1021.4
2018-Sep-13 16:03N 51°17' W 128°22'121.8
2018-Sep-13 16:00N 51°16' W 128°22'1120.9
2018-Sep-13 15:30N 51°09' W 128°10'1021.7
2018-Sep-13 15:03N 51°03' W 127°57'121.8
2018-Sep-13 15:00N 51°03' W 127°56'1121.8
2018-Sep-13 14:30N 50°56' W 127°42'1121.8
2018-Sep-13 14:00N 50°50' W 127°28'3235.9
2018-Sep-13 14:00N 50°48' W 127°30'1224.2 260 / 71013.610.8 12.812.214.4
2018-Sep-13 13:30N 50°46' W 127°12'1021.5
2018-Sep-13 13:03N 50°42' W 126°57'120.2
2018-Sep-13 13:00N 50°42' W 126°56'1020.0
2018-Sep-13 12:30N 50°36' W 126°43'715.0
2018-Sep-13 12:03N 50°31' W 126°36'118.8
2018-Sep-13 12:00N 50°31' W 126°35'1020.3
2018-Sep-13 11:30N 50°30' W 126°19'2218.9
2018-Sep-13 10:22N 50°23' W 125°47'1119.4
2018-Sep-13 09:49N 50°21' W 125°30'413.5
2018-Sep-13 09:30N 50°19' W 125°25'818.6
2018-Sep-13 09:03N 50°10' W 125°22'113.7
2018-Sep-13 09:00N 50°10' W 125°22'510.5
2018-Sep-13 08:30N 50°05' W 125°17'4 9.5
2018-Sep-13 08:03N 50°02' W 125°13'112.3
2018-Sep-13 08:00N 50°01' W 125°13'815.6
2018-Sep-13 07:30N 49°56' W 125°05'714.9
2018-Sep-13 07:03N 49°52' W 124°56'113.0
2018-Sep-13 07:00N 49°52' W 124°55'613.0
2018-Sep-13 06:30N 49°50' W 124°45'612.7
2018-Sep-13 06:03N 49°49' W 124°36'112.6
2018-Sep-13 06:00N 49°49' W 124°36'4236.5
2018-Sep-13 06:00N 49°48' W 124°30'3 6.4 120 / 61012.610.8 14.813.317.7
2018-Sep-13 05:30N 49°46' W 124°27'612.1
2018-Sep-13 05:03N 49°42' W 124°20'012.5
2018-Sep-13 05:00N 49°42' W 124°19'181391.0
2018-Sep-13 05:00N 49°24' W 124°18'1426.9 130 / 61012.710.8 15.113.517.3
2018-Sep-13 04:29N 49°37' W 124°12'512.4
2018-Sep-13 04:03N 49°33' W 124°07'112.3
2018-Sep-13 03:59N 49°33' W 124°06'612.2
2018-Sep-13 03:30N 49°28' W 124°01'511.3
2018-Sep-13 03:03N 49°25' W 123°54'475.6
2018-Sep-13 03:00N 49°24' W 123°48'4811.3 140 / 41012.310.8 14.813.317.5
2018-Sep-13 02:59N 49°25' W 123°53'611.7
2018-Sep-13 02:30N 49°23' W 123°45'511.5
2018-Sep-13 02:03N 49°21' W 123°38'112.2
2018-Sep-13 01:59N 49°21' W 123°36'611.4
2018-Sep-13 01:30N 49°19' W 123°28'510.9
2018-Sep-13 01:03N 49°19' W 123°21'111.4
2018-Sep-13 01:00N 49°19' W 123°20'2112.5
2018-Sep-13 01:00N 49°18' W 123°18'510.2 230 / 61012.210.8 15.713.410.9
2018-Sep-13 00:30N 49°19' W 123°11'3 7.1
2018-Sep-13 00:03N 49°17' W 123°07'0 3.2
2018-Sep-13 00:00N 49°17' W 123°07'0 0.1
2018-Sep-12 23:28N 49°17' W 123°07'0 0.0
2018-Sep-12 23:01N 49°17' W 123°07'0 0.0
2018-Sep-12 22:58N 49°17' W 123°07'0 0.0
2018-Sep-12 22:28N 49°17' W 123°07'0 0.0
2018-Sep-12 22:01N 49°17' W 123°07'0 0.0
2018-Sep-12 21:58N 49°17' W 123°07'0 0.0
2018-Sep-12 21:28N 49°17' W 123°07'0 0.0
2018-Sep-12 21:01N 49°17' W 123°07'0 0.0
2018-Sep-12 20:58N 49°17' W 123°07'0 0.0
2018-Sep-12 20:28N 49°17' W 123°07'0 0.0
2018-Sep-12 20:01N 49°17' W 123°07'0 0.0
2018-Sep-12 19:58N 49°17' W 123°07'0 0.0
2018-Sep-12 19:28N 49°17' W 123°07'0 0.0
2018-Sep-12 19:01N 49°17' W 123°07'0 0.0
2018-Sep-12 18:58N 49°17' W 123°07'0 0.0
2018-Sep-12 18:28N 49°17' W 123°07'0 0.0
2018-Sep-12 18:01N 49°17' W 123°07'0 0.0
2018-Sep-12 17:58N 49°17' W 123°07'0 0.0
2018-Sep-12 17:28N 49°17' W 123°07'0 0.0
2018-Sep-12 17:01N 49°17' W 123°07'0 0.0
2018-Sep-12 16:58N 49°17' W 123°07'0 0.0
2018-Sep-12 16:28N 49°17' W 123°07'0 0.0
2018-Sep-12 16:01N 49°17' W 123°07'5207.0
2018-Sep-12 16:00N 49°12' W 123°06'5216.3 090 / 41013.310.8 14.413.310.9
2018-Sep-12 15:58N 49°17' W 123°07'0 0.0
2018-Sep-12 15:28N 49°17' W 123°07'0 0.0
2018-Sep-12 15:01N 49°17' W 123°07'0 0.0
2018-Sep-12 14:58N 49°17' W 123°07'0 0.0
2018-Sep-12 14:03N 49°17' W 123°07'0 0.9
2018-Sep-12 14:00N 49°17' W 123°07'1 2.6
2018-Sep-12 13:30N 49°19' W 123°08'510.1
2018-Sep-12 13:04N 49°18' W 123°15'110.9
2018-Sep-12 13:00N 49°18' W 123°15'510.7
2018-Sep-12 12:30N 49°19' W 123°24'510.9
2018-Sep-12 12:03N 49°19' W 123°31'111.1
2018-Sep-12 12:00N 49°19' W 123°32'2143.4
2018-Sep-12 12:00N 49°18' W 123°30'713.8 090 / 121013.010.8 14.513.910.9
2018-Sep-12 11:30N 49°19' W 123°40'510.3
2018-Sep-12 11:03N 49°20' W 123°47'0 9.3
2018-Sep-12 11:00N 49°20' W 123°48'2152.4
2018-Sep-12 11:00N 49°18' W 123°48'510.9 090 / 111012.910.8 14.013.710.0
2018-Sep-12 10:30N 49°20' W 123°55'4 8.5
2018-Sep-12 10:03N 49°21' W 124°01'0 8.7
2018-Sep-12 10:00N 49°21' W 124°02'3495.8
2018-Sep-12 10:00N 49°18' W 124°00'613.0 120 / 51013.010.8 13.913.415.1
2018-Sep-12 09:31N 49°22' W 124°08'4 7.9
2018-Sep-12 09:03N 49°23' W 124°13'0 7.1
2018-Sep-12 09:01N 49°23' W 124°13'5309.8
2018-Sep-12 09:00N 49°18' W 124°12'1020.8 190 / 11014.010.8 13.012.515.1
2018-Sep-12 08:30N 49°26' W 124°22'4 9.1
2018-Sep-12 08:03N 49°28' W 124°27'0 8.8
2018-Sep-12 08:00N 49°28' W 124°28'5 9.1
2018-Sep-12 07:31N 49°32' W 124°33'4 9.0
2018-Sep-12 07:04N 49°35' W 124°37'0 9.2
2018-Sep-12 07:00N 49°35' W 124°37'4 8.9
2018-Sep-12 06:31N 49°38' W 124°42'4 9.1
2018-Sep-12 06:03N 49°41' W 124°46'341.6
2018-Sep-12 06:00N 49°42' W 124°42'3163.4 320 / 31013.110.8 13.012.515.1
2018-Sep-12 05:58N 49°42' W 124°47'4 8.8
2018-Sep-12 05:31N 49°45' W 124°51'4 9.0
2018-Sep-12 05:03N 49°48' W 124°55'0 8.4
2018-Sep-12 05:00N 49°48' W 124°56'1103.0
2018-Sep-12 05:00N 49°48' W 124°54'611.4 290 / 31013.110.8 12.712.214.5
2018-Sep-12 04:30N 49°51' W 125°01'4 9.6
2018-Sep-12 04:03N 49°55' W 125°05'0 9.1
2018-Sep-12 04:00N 49°55' W 125°06'158.7
2018-Sep-12 04:00N 49°54' W 125°06'511.0 200 / 21012.810.8 13.412.514.6
2018-Sep-12 03:30N 49°58' W 125°11'4 8.7
2018-Sep-12 03:03N 50°02' W 125°13'1 9.4
2018-Sep-12 03:00N 50°02' W 125°14'511.4
2018-Sep-12 02:31N 50°07' W 125°19'510.7
2018-Sep-12 02:03N 50°11' W 125°22'114.3
2018-Sep-12 02:00N 50°12' W 125°22'816.3
2018-Sep-12 01:30N 50°20' W 125°25'716.2
2018-Sep-12 01:03N 50°22' W 125°36'318.5
2018-Sep-12 00:53N 50°22' W 125°41'1919.0
2018-Sep-11 23:52N 50°28' W 126°10'1018.4
2018-Sep-11 23:20N 50°30' W 126°25'518.3
2018-Sep-11 23:03N 50°30' W 126°33'118.7
2018-Sep-11 23:00N 50°31' W 126°35'814.2
2018-Sep-11 22:28N 50°36' W 126°43'717.8
2018-Sep-11 22:03N 50°41' W 126°52'119.5
2018-Sep-11 22:00N 50°41' W 126°53'1421.4
2018-Sep-11 22:00N 50°42' W 126°54'917.6 130 / 141012.410.8 12.311.818.0
2018-Sep-11 21:30N 50°45' W 127°07'815.2
2018-Sep-11 21:00N 50°48' W 127°18'1221.3 110 / 151012.410.8 12.311.818.0
2018-Sep-11 20:26N 50°53' W 127°35'718.0
2018-Sep-11 20:02N 50°57' W 127°44'118.4
2018-Sep-11 20:00N 50°57' W 127°45'918.3
2018-Sep-11 19:30N 51°03' W 127°56'817.6
2018-Sep-11 19:04N 51°08' W 128°07'116.9
2018-Sep-11 19:01N 51°08' W 128°08'916.9
2018-Sep-11 18:30N 51°13' W 128°19'817.1
2018-Sep-11 18:03N 51°18' W 128°29'116.9
2018-Sep-11 18:00N 51°18' W 128°30'816.8
2018-Sep-11 17:30N 51°23' W 128°41'816.9
2018-Sep-11 17:03N 51°28' W 128°50'116.5
2018-Sep-11 17:01N 51°28' W 128°51'2145.1
2018-Sep-11 17:00N 51°30' W 128°54'611.5 140 / 231011.510.8 13.312.818.0
2018-Sep-11 16:31N 51°35' W 128°59'716.2
2018-Sep-11 16:04N 51°41' W 129°05'117.1
2018-Sep-11 16:01N 51°41' W 129°06'132.9
2018-Sep-11 16:00N 51°42' W 129°06'   140 / 191011.210.8 13.313.017.7
Track history (hours):
 
Tides and Currents Weather Stations Pressure Air Temp Water Temp Dewpoint Dewpoint Depression Visibility Wind Speed Wind Dir Waves Ship Positions

Volendam

Operator: Holland America Line

Last reported at 2018-Sep-21 16:00 UTC. Time now 2018-Sep-21 22:08 UTC.
Position N 57°18' W 133°48'.

Type: Ship. MMSI: 245968000.

Wind from 350 at 12 knots

Barometer 1017.1 mb
Air temperature 9.5 ° C
Visibility: greater than 10.8 NM
Dewpoint 7.9 ° C
Water temperature 16.8 ° C

Date/timePositionNaut miles runAvg speedWind from/ knotsBaromVisibWave heightAir tempDewpointWater temp
2018-Sep-21 16:00N 57°18' W 133°48'2914.5 350 / 121017.110.8 9.5 7.916.8
2018-Sep-21 14:00N 56°54' W 134°18'1212.4 360 / 41017.110.8 7.5 6.314.4
2018-Sep-21 13:00N 56°42' W 134°24'1818.0 360 / 201017.110.8 8.3 6.814.2
2018-Sep-21 12:00N 56°24' W 134°24'4214.0 020 / 111017.110.8 8.7 6.814.0
2018-Sep-21 09:00N 55°42' W 134°18'1413.8 010 / 101017.010.8 12.810.319.4
2018-Sep-21 08:00N 55°30' W 134°06'6622.0 010 / 101017.010.8 12.810.319.4
2018-Sep-21 05:00N 54°36' W 133°00'1610.1 040 / 71017.210.8 11.5 7.612.4
2018-Sep-21 03:26N 54°28' W 132°37'918.7
2018-Sep-21 02:55N 54°27' W 132°21'819.3
2018-Sep-21 02:30N 54°26' W 132°07'919.0
2018-Sep-21 02:03N 54°25' W 131°52'318.9
2018-Sep-21 01:55N 54°25' W 131°47'818.9
2018-Sep-21 01:30N 54°24' W 131°34'919.0
2018-Sep-21 01:03N 54°22' W 131°20'118.7
2018-Sep-21 01:00N 54°22' W 131°19'4261.1
2018-Sep-21 01:00N 54°18' W 131°18'918.3 360 / 91017.610.8 12.210.319.2
2018-Sep-21 00:30N 54°20' W 131°03'818.2
2018-Sep-21 00:03N 54°17' W 130°50'113.1
2018-Sep-21 00:00N 54°17' W 130°49'816.3
2018-Sep-20 23:30N 54°12' W 130°38'818.7
2018-Sep-20 23:03N 54°08' W 130°25'118.4
2018-Sep-20 23:01N 54°07' W 130°24'918.4
2018-Sep-20 22:31N 54°01' W 130°13'816.8
2018-Sep-20 22:03N 53°54' W 130°07'119.0
2018-Sep-20 22:00N 53°53' W 130°06'6431.8
2018-Sep-20 22:00N 53°48' W 130°00'3 6.7 290 / 161016.610.8 12.810.218.8
2018-Sep-20 21:30N 53°46' W 129°55'1325.3
2018-Sep-20 21:00N 53°36' W 129°42'4615.7 310 / 41016.810.8 13.913.719.9
2018-Sep-20 18:05N 52°54' W 129°13'119.7
2018-Sep-20 18:01N 52°53' W 129°12'119.5
2018-Sep-20 17:57N 52°51' W 129°11'919.3
2018-Sep-20 17:31N 52°44' W 129°04'919.8
2018-Sep-20 17:04N 52°37' W 128°55'119.3
2018-Sep-20 17:00N 52°36' W 128°54'1019.4
2018-Sep-20 16:30N 52°27' W 128°51'919.1
2018-Sep-20 16:03N 52°18' W 128°49'119.4
2018-Sep-20 16:00N 52°17' W 128°48'144.2
2018-Sep-20 16:00N 52°18' W 128°48'1021.2
2018-Sep-20 15:31N 52°08' W 128°45'919.8
2018-Sep-20 15:04N 51°59' W 128°41'120.0
2018-Sep-20 15:01N 51°58' W 128°41'1020.0
2018-Sep-20 14:30N 51°49' W 128°36'1019.9
2018-Sep-20 14:01N 51°39' W 128°32'3201.3
2018-Sep-20 14:00N 51°36' W 128°30'713.8 110 / 151017.5 11.911.719.9
2018-Sep-20 13:31N 51°30' W 128°28'919.9
2018-Sep-20 13:03N 51°21' W 128°24'120.0
2018-Sep-20 13:00N 51°20' W 128°23'1019.2
2018-Sep-20 12:30N 51°11' W 128°16'919.7
2018-Sep-20 12:04N 51°06' W 128°04'119.8
2018-Sep-20 12:00N 51°06' W 128°03'2120.0
2018-Sep-20 12:00N 51°06' W 128°00'817.2 110 / 131017.9 11.711.519.3
2018-Sep-20 11:30N 51°00' W 127°50'920.1
2018-Sep-20 11:03N 50°55' W 127°39'121.0
2018-Sep-20 11:01N 50°54' W 127°38'166.1
2018-Sep-20 11:00N 50°54' W 127°36'1019.0 100 / 131018.6 10.710.518.3
2018-Sep-20 10:28N 50°49' W 127°23'1120.0
2018-Sep-20 09:54N 50°44' W 127°06'2123.0
2018-Sep-20 09:00N 50°30' W 126°42'4 8.8 180 / 21018.910.8 10.910.019.1
2018-Sep-20 08:32N 50°31' W 126°36'118.5
2018-Sep-20 08:29N 50°31' W 126°35'819.3
2018-Sep-20 08:03N 50°30' W 126°21'119.9
2018-Sep-20 07:59N 50°29' W 126°19'2117.5
2018-Sep-20 06:45N 50°23' W 125°47'514.9
2018-Sep-20 06:27N 50°22' W 125°40'716.4
2018-Sep-20 06:02N 50°21' W 125°30'5116.1
2018-Sep-20 06:00N 50°18' W 125°24'345.5 260 / 51018.910.8 10.910.019.1
2018-Sep-20 05:55N 50°20' W 125°27'615.3
2018-Sep-20 05:30N 50°14' W 125°23'716.3
2018-Sep-20 05:03N 50°07' W 125°21'113.2
2018-Sep-20 05:00N 50°07' W 125°20'612.0
2018-Sep-20 04:30N 50°02' W 125°14'714.8
2018-Sep-20 04:03N 49°57' W 125°08'121.2
2018-Sep-20 04:00N 49°56' W 125°06'2390.3
2018-Sep-20 04:00N 49°54' W 125°06'918.5 280 / 141018.510.8 13.711.619.9
2018-Sep-20 03:31N 49°50' W 124°54'921.0
2018-Sep-20 03:03N 49°44' W 124°42'120.2
2018-Sep-20 03:00N 49°43' W 124°41'4227.4
2018-Sep-20 03:00N 49°42' W 124°36'715.2 300 / 101018.210.8 13.711.721.0
2018-Sep-20 02:31N 49°37' W 124°28'1224.2
2018-Sep-20 02:00N 49°30' W 124°12'1 7.3 320 / 121017.410.8 12.910.316.8
2018-Sep-20 01:52N 49°30' W 124°11'720.3
2018-Sep-20 01:30N 49°27' W 124°00'920.9
2018-Sep-20 01:04N 49°24' W 123°47'120.4
2018-Sep-20 01:00N 49°24' W 123°45'6389.1
2018-Sep-20 01:00N 49°18' W 123°42'817.2 280 / 181017.410.8 14.211.216.8
2018-Sep-20 00:30N 49°20' W 123°30'920.5
2018-Sep-20 00:04N 49°19' W 123°16'120.5
2018-Sep-20 00:00N 49°19' W 123°14'510.5
2018-Sep-19 23:31N 49°17' W 123°07'0 0.1
2018-Sep-19 23:01N 49°17' W 123°07'0 0.1
2018-Sep-19 22:58N 49°17' W 123°07'0 0.0
2018-Sep-19 22:28N 49°17' W 123°07'0 0.0
2018-Sep-19 22:01N 49°17' W 123°07'0 0.0
2018-Sep-19 21:58N 49°17' W 123°07'0 0.0
2018-Sep-19 21:28N 49°17' W 123°07'0 0.0
2018-Sep-19 21:01N 49°17' W 123°07'5176.1
2018-Sep-19 21:00N 49°12' W 123°06'5280.8 230 / 51017.710.8 17.612.116.8
2018-Sep-19 20:58N 49°17' W 123°07'0 0.0
2018-Sep-19 20:28N 49°17' W 123°07'0 0.0
2018-Sep-19 20:01N 49°17' W 123°07'0 0.0
2018-Sep-19 19:58N 49°17' W 123°07'0 0.0
2018-Sep-19 19:28N 49°17' W 123°07'0 0.0
2018-Sep-19 19:01N 49°17' W 123°07'0 0.0
2018-Sep-19 18:58N 49°17' W 123°07'0 0.0
2018-Sep-19 18:28N 49°17' W 123°07'0 0.0
2018-Sep-19 18:01N 49°17' W 123°07'0 0.1
2018-Sep-19 17:58N 49°17' W 123°07'0 0.0
2018-Sep-19 17:28N 49°17' W 123°07'0 0.0
2018-Sep-19 17:01N 49°17' W 123°07'0 0.0
2018-Sep-19 16:58N 49°17' W 123°07'0 0.0
2018-Sep-19 16:28N 49°17' W 123°07'0 0.0
2018-Sep-19 16:01N 49°17' W 123°07'0 0.0
2018-Sep-19 15:58N 49°17' W 123°07'0 0.0
2018-Sep-19 15:28N 49°17' W 123°07'0 0.0
2018-Sep-19 15:01N 49°17' W 123°07'0 0.0
2018-Sep-19 14:58N 49°17' W 123°07'0 0.0
2018-Sep-19 14:28N 49°17' W 123°07'1 1.2
2018-Sep-19 13:31N 49°18' W 123°07'4 9.2
2018-Sep-19 13:03N 49°19' W 123°14'111.2
2018-Sep-19 13:00N 49°18' W 123°15'611.0
2018-Sep-19 12:30N 49°18' W 123°23'511.0
2018-Sep-19 12:03N 49°18' W 123°31'010.7
2018-Sep-19 12:00N 49°18' W 123°31'510.7
2018-Sep-19 11:30N 49°19' W 123°39'510.6
2018-Sep-19 11:03N 49°19' W 123°47'110.6
2018-Sep-19 11:00N 49°20' W 123°47'402849.6
2018-Sep-19 11:00N 49°18' W 124°48'3571.5 100 / 81018.310.8 13.411.616.8
2018-Sep-19 10:31N 49°21' W 123°55'510.8
2018-Sep-19 10:04N 49°22' W 124°02'110.5
2018-Sep-19 10:01N 49°22' W 124°03'3165.4
2018-Sep-19 10:00N 49°24' W 124°00'715.1 360 / 11018.010.8 13.111.217.8
2018-Sep-19 09:30N 49°23' W 124°11'510.8
2018-Sep-19 09:03N 49°25' W 124°18'115.3
2018-Sep-19 09:01N 49°25' W 124°20'189.0
2018-Sep-19 09:00N 49°24' W 124°18'715.2 360 / 11018.010.8 13.111.217.8
2018-Sep-19 08:30N 49°28' W 124°27'510.5
2018-Sep-19 08:01N 49°32' W 124°32'396.5
2018-Sep-19 08:00N 49°30' W 124°30'3884.4 360 / 11018.010.8 13.111.217.8
2018-Sep-19 07:59N 49°32' W 124°32'510.7
2018-Sep-19 07:30N 49°36' W 124°38'510.7
2018-Sep-19 07:03N 49°40' W 124°43'010.8
2018-Sep-19 07:01N 49°40' W 124°43'510.7
2018-Sep-19 06:30N 49°44' W 124°49'510.7
2018-Sep-19 06:03N 49°48' W 124°54'111.9
2018-Sep-19 06:00N 49°48' W 124°55'510.4
2018-Sep-19 05:30N 49°52' W 125°00'410.1
2018-Sep-19 05:04N 49°55' W 125°05'110.0
2018-Sep-19 05:00N 49°56' W 125°06'510.1
2018-Sep-19 04:30N 49°59' W 125°11'511.3
2018-Sep-19 04:03N 50°04' W 125°15'010.4
2018-Sep-19 04:00N 50°04' W 125°15'510.4
2018-Sep-19 03:31N 50°08' W 125°21'511.0
2018-Sep-19 03:03N 50°13' W 125°22'111.6
2018-Sep-19 03:00N 50°13' W 125°23'611.8
2018-Sep-19 02:30N 50°19' W 125°25'510.6
2018-Sep-19 02:02N 50°21' W 125°32'310.9
2018-Sep-19 01:43N 50°22' W 125°37'313.3
2018-Sep-19 01:29N 50°22' W 125°42'5216.0
2018-Sep-18 22:15N 50°42' W 126°57'2284.7
2018-Sep-18 22:00N 50°48' W 127°30'15145.4 140 / 131020.410.8 10.1 8.217.8
2018-Sep-18 21:53N 50°45' W 127°07'1018.5
2018-Sep-18 21:22N 50°48' W 127°21'618.1
2018-Sep-18 21:03N 50°50' W 127°29'117.8
2018-Sep-18 21:00N 50°51' W 127°30'917.9
2018-Sep-18 20:30N 50°56' W 127°42'818.1
2018-Sep-18 20:03N 51°01' W 127°52'117.9
2018-Sep-18 20:00N 51°01' W 127°54'917.8
2018-Sep-18 19:30N 51°07' W 128°05'816.9
2018-Sep-18 19:03N 51°11' W 128°15'116.3
2018-Sep-18 19:00N 51°12' W 128°16'816.6
2018-Sep-18 18:30N 51°16' W 128°26'816.8
2018-Sep-18 18:03N 51°21' W 128°36'116.7
2018-Sep-18 18:00N 51°21' W 128°37'917.5
2018-Sep-18 17:30N 51°26' W 128°49'817.5
2018-Sep-18 17:03N 51°32' W 128°57'118.4
2018-Sep-18 17:00N 51°33' W 128°57'3193.0
2018-Sep-18 17:00N 51°36' W 129°00'612.2 120 / 301018.510.8 12.410.316.7
2018-Sep-18 16:31N 51°41' W 129°05'818.2
2018-Sep-18 16:03N 51°48' W 129°13'117.8
2018-Sep-18 16:00N 51°48' W 129°13'162.3
2018-Sep-18 16:00N 51°48' W 129°12'1019.8 120 / 321018.510.8 12.410.116.3
2018-Sep-18 15:30N 51°56' W 129°21'817.6
2018-Sep-18 15:03N 52°02' W 129°28'117.6
2018-Sep-18 15:00N 52°03' W 129°29'3191.0
2018-Sep-18 15:00N 52°00' W 129°30'1123.3 100 / 301018.710.8 11.7 9.617.7
2018-Sep-18 14:30N 52°10' W 129°37'917.6
2018-Sep-18 14:00N 52°18' W 129°45'1117.8
2018-Sep-18 13:25N 52°27' W 129°54'922.5
2018-Sep-18 13:00N 52°18' W 130°00'3130.9 120 / 301018.710.8 11.5 8.917.4
2018-Sep-18 12:00N 52°48' W 130°12'1616.2 140 / 251019.110.8 12.3 8.817.4
2018-Sep-18 11:00N 53°00' W 130°30'636.0 160 / 271019.110.8 13.010.017.7
2018-Sep-18 10:50N 53°05' W 130°35'617.5
2018-Sep-18 10:30N 53°10' W 130°40'817.6
2018-Sep-18 10:03N 53°17' W 130°44'117.9
2018-Sep-18 10:00N 53°18' W 130°45'917.9
2018-Sep-18 09:30N 53°27' W 130°48'818.1
2018-Sep-18 09:03N 53°35' W 130°51'118.0
2018-Sep-18 09:00N 53°36' W 130°51'2115.5
2018-Sep-18 09:00N 53°36' W 130°48'919.3 120 / 281020.510.8 13.0 9.417.7
2018-Sep-18 08:30N 53°45' W 130°54'818.3
2018-Sep-18 08:03N 53°53' W 130°57'117.3
2018-Sep-18 08:00N 53°54' W 130°57'2113.7
2018-Sep-18 08:00N 53°54' W 130°54'919.0 120 / 281020.510.8 13.0 9.417.7
2018-Sep-18 07:30N 54°02' W 131°00'817.8
2018-Sep-18 07:03N 54°10' W 131°01'117.8
2018-Sep-18 07:00N 54°11' W 131°01'158.1
2018-Sep-18 07:00N 54°12' W 131°00'715.3 130 / 241020.510.8 12.7 9.717.7
2018-Sep-18 06:30N 54°19' W 130°57'714.5
2018-Sep-18 06:04N 54°24' W 131°05'118.5
2018-Sep-18 06:00N 54°25' W 131°06'918.4
2018-Sep-18 05:30N 54°31' W 131°17'918.8
2018-Sep-18 05:03N 54°37' W 131°28'118.8
2018-Sep-18 05:00N 54°38' W 131°29'2124.7
2018-Sep-18 05:00N 54°36' W 131°30'1520.8 110 / 181020.510.8 12.110.216.4
2018-Sep-18 04:16N 54°50' W 131°40'516.9
2018-Sep-18 04:00N 54°54' W 131°36'24 4.0 120 / 131020.510.8 14.010.815.9
2018-Sep-17 22:00N 55°18' W 131°36'7 1.4 170 / 151020.510.8 14.5 8.718.8
2018-Sep-17 17:00N 55°18' W 131°48'3534.6 140 / 101019.210.8 9.8 7.018.8
2018-Sep-17 16:00N 55°24' W 132°48'2813.8 130 / 71018.210.8 9.7 7.316.2
2018-Sep-17 14:00N 55°48' W 132°24'1615.7 190 / 21018.210.8 9.0 6.116.8
2018-Sep-17 13:00N 56°00' W 132°42'1413.7 180 / 21018.210.8 6.4 4.114.9
2018-Sep-17 12:00N 56°12' W 132°54'1211.7 180 / 21017.910.8 6.4 4.113.9
2018-Sep-17 11:00N 56°18' W 133°12'1313.3 130 / 61017.910.8 9.4 5.615.2
2018-Sep-17 10:00N 56°18' W 133°36'2222.4 010 / 101017.710.8 9.4 5.615.2
2018-Sep-17 09:00N 56°00' W 134°00'4515.1 010 / 101017.310.8 9.4 5.615.2
2018-Sep-17 06:00N 56°42' W 134°30'2524.9 200 / 41016.310.8 10.2 3.915.0
2018-Sep-17 05:00N 57°06' W 134°42'1818.0 130 / 21015.910.8 9.6 4.816.8
2018-Sep-17 04:00N 57°24' W 134°42'3015.1 300 / 101015.010.8 11.7 3.710.0
2018-Sep-17 02:00N 57°54' W 134°48'1642.9
2018-Sep-17 01:37N 58°07' W 135°06'218.1
2018-Sep-17 01:30N 58°08' W 135°10'818.7
2018-Sep-17 01:03N 58°12' W 135°24'119.4
2018-Sep-17 01:00N 58°12' W 135°25'918.8
2018-Sep-17 00:30N 58°17' W 135°41'818.3
2018-Sep-17 00:03N 58°20' W 135°56'118.4
2018-Sep-17 00:00N 58°21' W 135°57'713.2
2018-Sep-16 23:31N 58°27' W 136°00'716.5
2018-Sep-16 23:03N 58°34' W 136°03'119.2
2018-Sep-16 23:00N 58°35' W 136°03'2113.6
2018-Sep-16 23:00N 58°36' W 136°00'918.9 300 / 101015.410.8 10.7 2.810.0
2018-Sep-16 22:31N 58°44' W 136°10'918.9
2018-Sep-16 22:03N 58°48' W 136°24'119.5
2018-Sep-16 22:01N 58°48' W 136°26'154.5
2018-Sep-16 22:00N 58°48' W 136°24'1121.7 300 / 101015.410.8 10.7 2.810.0
2018-Sep-16 21:30N 58°53' W 136°42'1 0.3
2018-Sep-16 16:54N 58°53' W 136°45'815.1
2018-Sep-16 16:23N 58°51' W 136°30'411.7
2018-Sep-16 16:03N 58°48' W 136°25'113.9
2018-Sep-16 16:00N 58°48' W 136°24'021.7
2018-Sep-16 16:00N 58°48' W 136°24'919.2 300 / 121016.110.8 6.9 4.222.9
2018-Sep-16 15:30N 58°41' W 136°11'818.3
2018-Sep-16 15:04N 58°34' W 136°03'118.2
2018-Sep-16 15:01N 58°33' W 136°03'16931.1
2018-Sep-16 15:00N 58°18' W 136°00'816.0 290 / 21016.210.8 5.9 3.221.7
2018-Sep-16 14:30N 58°26' W 135°58'815.4
2018-Sep-16 14:00N 58°18' W 135°54'4 8.4 010 / 31016.210.8 7.8 4.015.4
2018-Sep-16 13:30N 58°18' W 135°46'612.7
2018-Sep-16 13:03N 58°16' W 135°36'112.2
2018-Sep-16 13:00N 58°16' W 135°35'5304.0
2018-Sep-16 13:00N 58°12' W 135°30'4 7.5 280 / 61016.110.8 7.8 3.818.0
2018-Sep-16 12:30N 58°13' W 135°24'614.4
2018-Sep-16 12:03N 58°11' W 135°12'695.9
2018-Sep-16 12:00N 58°06' W 135°06'5467.7 260 / 61017.310.8 8.6 4.221.0
2018-Sep-16 11:59N 58°11' W 135°10'6 5.7
2018-Sep-16 11:00N 58°12' W 135°00'1212.0 360 / 41017.010.8 8.1 3.212.7
2018-Sep-16 10:00N 58°24' W 135°00'1212.4 360 / 81017.010.8 8.1 3.212.7
2018-Sep-16 09:00N 58°36' W 135°06'2412.1 320 / 121017.710.8 11.1 3.410.7
2018-Sep-16 07:00N 59°00' W 135°12'1212.4 350 / 151017.410.8 11.1 3.410.7
2018-Sep-16 06:00N 59°12' W 135°18'12 0.7 280 / 101017.510.8 10.4 2.710.5
2018-Sep-15 14:00N 59°24' W 135°18'6 6.0 080 / 11022.210.8 7.5 1.610.4
2018-Sep-15 13:00N 59°18' W 135°18'1818.3 350 / 211021.810.8 8.5 1.210.7
2018-Sep-15 12:00N 59°36' W 135°12'6030.2 350 / 61021.810.8 12.7 0.412.4
2018-Sep-15 10:00N 58°36' W 135°00'1413.5 350 / 61020.810.8 12.7 0.412.4
2018-Sep-15 09:00N 58°24' W 134°48'2412.0 350 / 61020.810.8 12.7 0.412.4
2018-Sep-15 07:00N 58°06' W 134°18'60 4.0 050 / 141020.010.8 13.7-2.714.4
2018-Sep-14 16:00N 57°06' W 134°06'2120.5 030 / 51016.410.8 8.7 7.610.1
2018-Sep-14 15:00N 56°48' W 134°24'4816.0 020 / 51016.310.8 8.0 6.6 9.8
2018-Sep-14 12:00N 56°00' W 134°18'1818.0 040 / 241014.810.8 12.0 8.815.3
2018-Sep-14 11:00N 55°42' W 134°18'4120.7 040 / 241014.810.8 12.0 8.815.3
2018-Sep-14 09:00N 55°06' W 133°42'1615.8 060 / 131014.810.8 11.5 8.512.4
2018-Sep-14 08:00N 54°54' W 133°24'2322.7 040 / 71014.810.8 11.5 8.512.4
2018-Sep-14 07:00N 54°36' W 133°00'310.2 040 / 71015.210.8 11.5 8.512.4
2018-Sep-14 06:44N 54°38' W 132°58'418.4
2018-Sep-14 06:30N 54°35' W 132°52'919.7
2018-Sep-14 06:03N 54°30' W 132°41'119.7
2018-Sep-14 06:00N 54°29' W 132°39'5370.0
2018-Sep-14 06:00N 54°24' W 132°36'917.1 330 / 11015.410.8 12.1 9.114.0
2018-Sep-14 05:29N 54°27' W 132°22'820.1
2018-Sep-14 05:03N 54°26' W 132°07'120.3
2018-Sep-14 05:00N 54°26' W 132°05'4377.7
2018-Sep-14 05:00N 54°24' W 132°00'713.4 200 / 51015.210.8 11.9 8.715.7
2018-Sep-14 04:30N 54°25' W 131°49'919.3
2018-Sep-14 04:03N 54°24' W 131°34'119.8
2018-Sep-14 04:00N 54°24' W 131°33'189.6
2018-Sep-14 04:00N 54°24' W 131°30'817.2 030 / 21015.510.8 11.8 8.615.5
2018-Sep-14 03:30N 54°23' W 131°16'919.9
2018-Sep-14 03:03N 54°20' W 131°01'120.0
2018-Sep-14 03:00N 54°20' W 130°60'815.9
2018-Sep-14 02:30N 54°16' W 130°48'817.2
2018-Sep-14 02:03N 54°11' W 130°37'119.0
2018-Sep-14 02:00N 54°11' W 130°35'918.7
2018-Sep-14 01:30N 54°06' W 130°21'818.4
2018-Sep-14 01:03N 53°60' W 130°13'118.4
2018-Sep-14 01:00N 53°59' W 130°13'917.3
2018-Sep-14 00:30N 53°52' W 130°04'818.5
2018-Sep-14 00:03N 53°46' W 129°54'118.2
2018-Sep-14 00:00N 53°45' W 129°53'4120.5
2018-Sep-13 22:00N 53°12' W 129°12'1212.0 340 / 181015.010.8 13.0 6.813.2
2018-Sep-13 21:00N 53°00' W 129°12'828.4 340 / 151015.010.8 13.0 6.813.2
2018-Sep-13 20:43N 52°52' W 129°11'1021.5
2018-Sep-13 20:16N 52°44' W 129°04'522.6
2018-Sep-13 20:03N 52°40' W 128°59'122.2
2018-Sep-13 20:00N 52°39' W 128°58'1020.5
2018-Sep-13 19:30N 52°30' W 128°52'1021.4
2018-Sep-13 19:03N 52°20' W 128°49'121.5
2018-Sep-13 19:00N 52°19' W 128°49'1121.4
2018-Sep-13 18:30N 52°09' W 128°45'1022.1
2018-Sep-13 18:03N 51°59' W 128°41'122.4
2018-Sep-13 18:00N 51°58' W 128°40'1122.0
2018-Sep-13 17:30N 51°47' W 128°36'1021.5
2018-Sep-13 17:03N 51°38' W 128°31'121.3
2018-Sep-13 17:00N 51°37' W 128°31'8516.7
2018-Sep-13 17:00N 51°30' W 128°24'4 7.4 080 / 101014.110.8 12.011.414.2
2018-Sep-13 16:30N 51°27' W 128°26'1021.4
2018-Sep-13 16:03N 51°17' W 128°22'121.8
2018-Sep-13 16:00N 51°16' W 128°22'1120.9
2018-Sep-13 15:30N 51°09' W 128°10'1021.7
2018-Sep-13 15:03N 51°03' W 127°57'121.8
2018-Sep-13 15:00N 51°03' W 127°56'1121.8
2018-Sep-13 14:30N 50°56' W 127°42'1121.8
2018-Sep-13 14:00N 50°50' W 127°28'3235.9
2018-Sep-13 14:00N 50°48' W 127°30'1224.2 260 / 71013.610.8 12.812.214.4
2018-Sep-13 13:30N 50°46' W 127°12'1021.5
2018-Sep-13 13:03N 50°42' W 126°57'120.2
2018-Sep-13 13:00N 50°42' W 126°56'1020.0
2018-Sep-13 12:30N 50°36' W 126°43'715.0
2018-Sep-13 12:03N 50°31' W 126°36'118.8
2018-Sep-13 12:00N 50°31' W 126°35'1020.3
2018-Sep-13 11:30N 50°30' W 126°19'2218.9
2018-Sep-13 10:22N 50°23' W 125°47'1119.4
2018-Sep-13 09:49N 50°21' W 125°30'413.5
2018-Sep-13 09:30N 50°19' W 125°25'818.6
2018-Sep-13 09:03N 50°10' W 125°22'113.7
2018-Sep-13 09:00N 50°10' W 125°22'510.5
2018-Sep-13 08:30N 50°05' W 125°17'4 9.5
2018-Sep-13 08:03N 50°02' W 125°13'112.3
2018-Sep-13 08:00N 50°01' W 125°13'815.6
2018-Sep-13 07:30N 49°56' W 125°05'714.9
2018-Sep-13 07:03N 49°52' W 124°56'113.0
2018-Sep-13 07:00N 49°52' W 124°55'613.0
2018-Sep-13 06:30N 49°50' W 124°45'612.7
2018-Sep-13 06:03N 49°49' W 124°36'112.6
2018-Sep-13 06:00N 49°49' W 124°36'4236.5
2018-Sep-13 06:00N 49°48' W 124°30'3 6.4 120 / 61012.610.8 14.813.317.7
2018-Sep-13 05:30N 49°46' W 124°27'612.1
2018-Sep-13 05:03N 49°42' W 124°20'012.5
2018-Sep-13 05:00N 49°42' W 124°19'181391.0
2018-Sep-13 05:00N 49°24' W 124°18'1426.9 130 / 61012.710.8 15.113.517.3
2018-Sep-13 04:29N 49°37' W 124°12'512.4
2018-Sep-13 04:03N 49°33' W 124°07'112.3
2018-Sep-13 03:59N 49°33' W 124°06'612.2
2018-Sep-13 03:30N 49°28' W 124°01'511.3
2018-Sep-13 03:03N 49°25' W 123°54'475.6
2018-Sep-13 03:00N 49°24' W 123°48'4811.3 140 / 41012.310.8 14.813.317.5
2018-Sep-13 02:59N 49°25' W 123°53'611.7
2018-Sep-13 02:30N 49°23' W 123°45'511.5
2018-Sep-13 02:03N 49°21' W 123°38'112.2
2018-Sep-13 01:59N 49°21' W 123°36'611.4
2018-Sep-13 01:30N 49°19' W 123°28'510.9
2018-Sep-13 01:03N 49°19' W 123°21'111.4
2018-Sep-13 01:00N 49°19' W 123°20'2112.5
2018-Sep-13 01:00N 49°18' W 123°18'510.2 230 / 61012.210.8 15.713.410.9
2018-Sep-13 00:30N 49°19' W 123°11'3 7.1
2018-Sep-13 00:03N 49°17' W 123°07'0 3.2
2018-Sep-13 00:00N 49°17' W 123°07'0 0.1
2018-Sep-12 23:28N 49°17' W 123°07'0 0.0
2018-Sep-12 23:01N 49°17' W 123°07'0 0.0
2018-Sep-12 22:58N 49°17' W 123°07'0 0.0
2018-Sep-12 22:28N 49°17' W 123°07'0 0.0
2018-Sep-12 22:01N 49°17' W 123°07'0 0.0
2018-Sep-12 21:58N 49°17' W 123°07'0 0.0
2018-Sep-12 21:28N 49°17' W 123°07'0 0.0
2018-Sep-12 21:01N 49°17' W 123°07'0 0.0
2018-Sep-12 20:58N 49°17' W 123°07'0 0.0
2018-Sep-12 20:28N 49°17' W 123°07'0 0.0
2018-Sep-12 20:01N 49°17' W 123°07'0 0.0
2018-Sep-12 19:58N 49°17' W 123°07'0 0.0
2018-Sep-12 19:28N 49°17' W 123°07'0 0.0
2018-Sep-12 19:01N 49°17' W 123°07'0 0.0
2018-Sep-12 18:58N 49°17' W 123°07'0 0.0
2018-Sep-12 18:28N 49°17' W 123°07'0 0.0
2018-Sep-12 18:01N 49°17' W 123°07'0 0.0
2018-Sep-12 17:58N 49°17' W 123°07'0 0.0
2018-Sep-12 17:28N 49°17' W 123°07'0 0.0
2018-Sep-12 17:01N 49°17' W 123°07'0 0.0
2018-Sep-12 16:58N 49°17' W 123°07'0 0.0
2018-Sep-12 16:28N 49°17' W 123°07'0 0.0
2018-Sep-12 16:01N 49°17' W 123°07'5207.0
2018-Sep-12 16:00N 49°12' W 123°06'5216.3 090 / 41013.310.8 14.413.310.9
2018-Sep-12 15:58N 49°17' W 123°07'0 0.0
2018-Sep-12 15:28N 49°17' W 123°07'0 0.0
2018-Sep-12 15:01N 49°17' W 123°07'0 0.0
2018-Sep-12 14:58N 49°17' W 123°07'0 0.0
2018-Sep-12 14:03N 49°17' W 123°07'0 0.9
2018-Sep-12 14:00N 49°17' W 123°07'1 2.6
2018-Sep-12 13:30N 49°19' W 123°08'510.1
2018-Sep-12 13:04N 49°18' W 123°15'110.9
2018-Sep-12 13:00N 49°18' W 123°15'510.7
2018-Sep-12 12:30N 49°19' W 123°24'510.9
2018-Sep-12 12:03N 49°19' W 123°31'111.1
2018-Sep-12 12:00N 49°19' W 123°32'2143.4
2018-Sep-12 12:00N 49°18' W 123°30'713.8 090 / 121013.010.8 14.513.910.9
2018-Sep-12 11:30N 49°19' W 123°40'510.3
2018-Sep-12 11:03N 49°20' W 123°47'0 9.3
2018-Sep-12 11:00N 49°20' W 123°48'2152.4
2018-Sep-12 11:00N 49°18' W 123°48'510.9 090 / 111012.910.8 14.013.710.0
2018-Sep-12 10:30N 49°20' W 123°55'4 8.5
2018-Sep-12 10:03N 49°21' W 124°01'0 8.7
2018-Sep-12 10:00N 49°21' W 124°02'3495.8
2018-Sep-12 10:00N 49°18' W 124°00'613.0 120 / 51013.010.8 13.913.415.1
2018-Sep-12 09:31N 49°22' W 124°08'4 7.9
2018-Sep-12 09:03N 49°23' W 124°13'0 7.1
2018-Sep-12 09:01N 49°23' W 124°13'5309.8
2018-Sep-12 09:00N 49°18' W 124°12'1020.8 190 / 11014.010.8 13.012.515.1
2018-Sep-12 08:30N 49°26' W 124°22'4 9.1
2018-Sep-12 08:03N 49°28' W 124°27'0 8.8
2018-Sep-12 08:00N 49°28' W 124°28'5 9.1
2018-Sep-12 07:31N 49°32' W 124°33'4 9.0
2018-Sep-12 07:04N 49°35' W 124°37'0 9.2
2018-Sep-12 07:00N 49°35' W 124°37'4 8.9
2018-Sep-12 06:31N 49°38' W 124°42'4 9.1
2018-Sep-12 06:03N 49°41' W 124°46'341.6
2018-Sep-12 06:00N 49°42' W 124°42'3163.4 320 / 31013.110.8 13.012.515.1
2018-Sep-12 05:58N 49°42' W 124°47'4 8.8
2018-Sep-12 05:31N 49°45' W 124°51'4 9.0
2018-Sep-12 05:03N 49°48' W 124°55'0 8.4
2018-Sep-12 05:00N 49°48' W 124°56'1103.0
2018-Sep-12 05:00N 49°48' W 124°54'611.4 290 / 31013.110.8 12.712.214.5
2018-Sep-12 04:30N 49°51' W 125°01'4 9.6
2018-Sep-12 04:03N 49°55' W 125°05'0 9.1
2018-Sep-12 04:00N 49°55' W 125°06'158.7
2018-Sep-12 04:00N 49°54' W 125°06'511.0 200 / 21012.810.8 13.412.514.6
2018-Sep-12 03:30N 49°58' W 125°11'4 8.7
2018-Sep-12 03:03N 50°02' W 125°13'1 9.4
2018-Sep-12 03:00N 50°02' W 125°14'511.4
2018-Sep-12 02:31N 50°07' W 125°19'510.7
2018-Sep-12 02:03N 50°11' W 125°22'114.3
2018-Sep-12 02:00N 50°12' W 125°22'816.3
2018-Sep-12 01:30N 50°20' W 125°25'716.2
2018-Sep-12 01:03N 50°22' W 125°36'318.5
2018-Sep-12 00:53N 50°22' W 125°41'1919.0
2018-Sep-11 23:52N 50°28' W 126°10'1018.4
2018-Sep-11 23:20N 50°30' W 126°25'518.3
2018-Sep-11 23:03N 50°30' W 126°33'118.7
2018-Sep-11 23:00N 50°31' W 126°35'814.2
2018-Sep-11 22:28N 50°36' W 126°43'717.8
2018-Sep-11 22:03N 50°41' W 126°52'119.5
2018-Sep-11 22:00N 50°41' W 126°53'1421.4
2018-Sep-11 22:00N 50°42' W 126°54'917.6 130 / 141012.410.8 12.311.818.0
2018-Sep-11 21:30N 50°45' W 127°07'815.2
2018-Sep-11 21:00N 50°48' W 127°18'1221.3 110 / 151012.410.8 12.311.818.0
2018-Sep-11 20:26N 50°53' W 127°35'718.0
2018-Sep-11 20:02N 50°57' W 127°44'118.4
2018-Sep-11 20:00N 50°57' W 127°45'918.3
2018-Sep-11 19:30N 51°03' W 127°56'817.6
2018-Sep-11 19:04N 51°08' W 128°07'116.9
2018-Sep-11 19:01N 51°08' W 128°08'916.9
2018-Sep-11 18:30N 51°13' W 128°19'817.1
2018-Sep-11 18:03N 51°18' W 128°29'116.9
2018-Sep-11 18:00N 51°18' W 128°30'816.8
2018-Sep-11 17:30N 51°23' W 128°41'816.9
2018-Sep-11 17:03N 51°28' W 128°50'116.5
2018-Sep-11 17:01N 51°28' W 128°51'2145.1
2018-Sep-11 17:00N 51°30' W 128°54'611.5 140 / 231011.510.8 13.312.818.0
2018-Sep-11 16:31N 51°35' W 128°59'716.2
2018-Sep-11 16:04N 51°41' W 129°05'117.1
2018-Sep-11 16:01N 51°41' W 129°06'132.9
2018-Sep-11 16:00N 51°42' W 129°06'   140 / 191011.210.8 13.313.017.7

Dump ship's entire track history